Time;durP1;ratioP1;P1;durP2;ratioP2;P2;SDS_P1;SDS_P2;PMS_P1;PMS_P2;Temp;Humidity;BMP_temperature;BMP_pressure;BME280_temperature;BME280_humidity;BME280_pressure;Samples;Min_cycle;Max_cycle;Signal;HPM_P1;HPM_P2
2020/12/11 00:01:32;;;;;;;20.07;13.43;;;5.30;99.90;;;;;;5092074;28;20236;-62
2020/12/11 00:03:59;;;;;;;19.60;13.47;;;5.30;99.90;;;;;;5092165;28;20632;-62
2020/12/11 00:06:25;;;;;;;18.20;13.30;;;5.30;99.90;;;;;;5092110;28;20211;-62
2020/12/11 00:08:51;;;;;;;19.23;13.23;;;5.40;99.90;;;;;;5091849;28;20352;-63
2020/12/11 00:11:18;;;;;;;18.83;13.53;;;5.30;99.90;;;;;;5091862;28;20231;-62
2020/12/11 00:13:44;;;;;;;18.07;12.43;;;5.30;99.90;;;;;;5091737;28;20201;-62
2020/12/11 00:16:11;;;;;;;19.37;13.20;;;5.40;99.90;;;;;;5092274;28;20249;-62
2020/12/11 00:18:37;;;;;;;19.20;12.97;;;5.50;99.90;;;;;;5091640;28;20675;-62
2020/12/11 00:21:04;;;;;;;19.63;13.63;;;5.50;99.90;;;;;;5091051;28;20700;-62
2020/12/11 00:23:30;;;;;;;16.93;12.73;;;5.50;99.90;;;;;;5091409;28;20220;-62
2020/12/11 00:25:58;;;;;;;18.60;13.57;;;5.60;99.90;;;;;;5091407;28;20680;-63
2020/12/11 00:28:26;;;;;;;20.17;13.47;;;5.60;99.90;;;;;;5091466;28;20287;-62
2020/12/11 00:30:52;;;;;;;19.90;14.27;;;5.60;99.90;;;;;;5091550;28;20707;-63
2020/12/11 00:33:19;;;;;;;19.73;13.93;;;5.60;99.90;;;;;;5091477;28;20208;-63
2020/12/11 00:35:45;;;;;;;16.87;13.37;;;5.60;99.90;;;;;;5091608;28;20204;-64
2020/12/11 00:38:12;;;;;;;16.93;13.00;;;5.70;99.90;;;;;;5091256;28;20200;-63
2020/12/11 00:40:38;;;;;;;18.97;14.47;;;5.80;99.90;;;;;;5091885;28;20228;-62
2020/12/11 00:43:04;;;;;;;17.77;13.43;;;5.80;99.90;;;;;;5091936;28;20200;-63
2020/12/11 00:45:31;;;;;;;19.27;14.50;;;5.90;99.90;;;;;;5091519;28;20235;-61
2020/12/11 00:47:57;;;;;;;18.67;14.23;;;5.90;99.90;;;;;;5091064;28;20200;-62
2020/12/11 00:50:24;;;;;;;18.60;13.47;;;6.00;99.90;;;;;;5091159;28;20707;-63
2020/12/11 00:52:50;;;;;;;17.10;13.23;;;6.10;99.90;;;;;;5090811;28;20208;-63
2020/12/11 00:55:17;;;;;;;17.60;13.67;;;6.10;99.90;;;;;;5090898;28;20574;-64
2020/12/11 00:57:43;;;;;;;17.20;13.23;;;6.10;99.90;;;;;;5090870;28;20696;-63
2020/12/11 01:00:12;;;;;;;17.70;13.53;;;6.20;99.90;;;;;;5091044;28;20250;-63
2020/12/11 01:02:39;;;;;;;20.00;13.77;;;6.20;99.90;;;;;;5091215;28;20616;-64
2020/12/11 01:05:05;;;;;;;16.93;13.23;;;6.10;99.90;;;;;;5090439;28;20239;-64
2020/12/11 01:07:32;;;;;;;19.00;13.93;;;6.10;99.90;;;;;;5090733;28;20671;-64
2020/12/11 01:09:58;;;;;;;17.33;13.20;;;6.10;99.90;;;;;;5090706;28;20233;-63
2020/12/11 01:12:25;;;;;;;17.33;13.73;;;6.10;99.90;;;;;;5091032;28;20668;-63
2020/12/11 01:14:51;;;;;;;17.20;13.80;;;6.10;99.90;;;;;;5090645;28;20211;-63
2020/12/11 01:17:18;;;;;;;18.70;14.47;;;6.10;99.90;;;;;;5090827;28;20203;-63
2020/12/11 01:19:44;;;;;;;20.17;15.40;;;6.00;99.90;;;;;;5090440;28;20251;-63
2020/12/11 01:22:10;;;;;;;19.83;14.73;;;5.90;99.90;;;;;;5090683;28;20219;-64
2020/12/11 01:24:37;;;;;;;18.67;14.53;;;5.80;99.90;;;;;;5090299;28;20223;-64
2020/12/11 01:27:03;;;;;;;21.03;14.73;;;5.70;99.90;;;;;;5090822;28;20203;-64
2020/12/11 01:29:30;;;;;;;20.23;15.40;;;5.50;99.90;;;;;;5090527;28;20261;-64
2020/12/11 01:31:56;;;;;;;22.27;16.40;;;5.50;99.90;;;;;;5090957;28;20249;-62
2020/12/11 01:34:22;;;;;;;18.50;14.07;;;5.50;99.90;;;;;;5094430;28;20258;-63
2020/12/11 01:36:48;;;;;;;19.40;14.50;;;5.40;99.90;;;;;;5094705;28;20208;-63
2020/12/11 01:39:15;;;;;;;18.33;13.90;;;5.40;99.90;;;;;;5094558;28;20208;-63
2020/12/11 01:41:42;;;;;;;16.60;12.90;;;5.30;99.90;;;;;;5094644;28;20232;-63
2020/12/11 01:44:09;;;;;;;18.90;13.90;;;5.20;99.90;;;;;;5094133;28;20235;-62
2020/12/11 01:46:38;;;;;;;17.23;13.37;;;5.10;99.90;;;;;;5094425;28;20215;-62
2020/12/11 01:49:05;;;;;;;19.43;14.03;;;4.90;99.90;;;;;;5094073;28;20287;-62
2020/12/11 01:51:32;;;;;;;17.67;13.30;;;4.70;99.90;;;;;;5094385;28;20220;-63
2020/12/11 01:53:59;;;;;;;20.90;14.50;;;4.60;99.90;;;;;;5094144;28;20204;-63
2020/12/11 01:56:26;;;;;;;22.80;15.73;;;4.50;99.90;;;;;;5094478;28;20236;-61
2020/12/11 01:59:00;;;;;;;19.13;14.20;;;4.30;99.90;;;;;;5094162;28;20211;-61
2020/12/11 02:01:27;;;;;;;20.50;14.70;;;4.40;99.90;;;;;;5094046;28;20242;-61
2020/12/11 02:03:53;;;;;;;20.63;14.23;;;4.50;99.90;;;;;;5093670;28;20228;-60
2020/12/11 02:06:19;;;;;;;17.90;14.20;;;4.50;99.90;;;;;;5094356;28;20208;-62
2020/12/11 02:08:47;;;;;;;20.90;14.97;;;4.50;99.90;;;;;;5093900;28;20208;-62
2020/12/11 02:11:17;;;;;;;19.30;15.07;;;4.60;99.90;;;;;;5093974;28;20225;-62
2020/12/11 02:13:44;;;;;;;20.33;14.73;;;4.70;99.90;;;;;;5093800;28;20206;-62
2020/12/11 02:16:11;;;;;;;17.87;13.47;;;4.90;99.90;;;;;;5093805;28;20208;-62
2020/12/11 02:18:37;;;;;;;19.57;14.53;;;5.00;99.90;;;;;;5093858;28;20204;-63
2020/12/11 02:21:03;;;;;;;19.57;14.60;;;5.00;99.90;;;;;;5093329;28;20711;-62
2020/12/11 02:23:30;;;;;;;19.20;14.23;;;5.00;99.90;;;;;;5093133;28;20715;-62
2020/12/11 02:25:56;;;;;;;18.40;14.07;;;5.20;99.90;;;;;;5093906;28;20208;-63
2020/12/11 02:28:22;;;;;;;19.07;14.30;;;5.20;99.90;;;;;;5093426;28;20204;-63
2020/12/11 02:30:49;;;;;;;16.80;13.13;;;5.30;99.90;;;;;;5093547;28;20220;-63
2020/12/11 02:33:15;;;;;;;17.03;13.33;;;5.30;99.90;;;;;;5093732;28;20204;-63
2020/12/11 02:35:41;;;;;;;17.57;13.40;;;5.30;99.90;;;;;;5093369;28;20249;-63
2020/12/11 02:38:09;;;;;;;17.40;13.93;;;5.30;99.90;;;;;;5093411;28;20859;-63
2020/12/11 02:40:47;;;;;;;16.03;12.37;;;5.30;99.90;;;;;;5093585;28;20220;-63
2020/12/11 02:43:13;;;;;;;17.50;13.33;;;5.30;99.90;;;;;;5093660;28;20254;-63
2020/12/11 02:45:40;;;;;;;16.57;12.90;;;5.10;99.90;;;;;;5092774;28;20223;-63
2020/12/11 02:48:06;;;;;;;16.30;12.30;;;5.00;99.90;;;;;;5093597;28;20216;-63
2020/12/11 02:50:32;;;;;;;14.03;11.73;;;5.00;99.90;;;;;;5093532;28;20225;-63
2020/12/11 02:52:59;;;;;;;14.80;11.67;;;4.80;99.90;;;;;;5093466;28;20208;-63
2020/12/11 02:55:25;;;;;;;14.53;11.93;;;4.70;99.90;;;;;;5093317;28;20656;-63
2020/12/11 02:57:52;;;;;;;14.50;12.00;;;4.50;99.90;;;;;;5092768;28;20212;-63
2020/12/11 03:00:18;;;;;;;14.60;12.17;;;4.50;99.90;;;;;;5093753;28;20236;-63
2020/12/11 03:02:44;;;;;;;14.90;11.60;;;4.50;99.90;;;;;;5093140;28;20834;-61
2020/12/11 03:05:10;;;;;;;13.67;10.97;;;4.50;99.90;;;;;;5092835;28;20259;-61
2020/12/11 03:07:36;;;;;;;14.83;11.63;;;4.30;99.90;;;;;;5093228;28;20215;-61
2020/12/11 03:10:03;;;;;;;14.53;11.93;;;4.10;99.90;;;;;;5092820;28;20273;-62
2020/12/11 03:12:29;;;;;;;14.40;11.83;;;4.00;99.90;;;;;;5093053;28;20257;-62
2020/12/11 03:14:56;;;;;;;16.17;13.03;;;3.90;99.90;;;;;;5093166;28;20211;-61
2020/12/11 03:17:22;;;;;;;18.00;13.03;;;3.70;99.90;;;;;;5093093;28;20200;-61
2020/12/11 03:19:49;;;;;;;16.73;13.13;;;3.60;99.90;;;;;;5092843;28;20233;-61
2020/12/11 03:22:15;;;;;;;18.40;13.67;;;3.40;99.90;;;;;;5092886;28;20211;-61
2020/12/11 03:24:41;;;;;;;16.83;13.07;;;3.40;99.90;;;;;;5092768;28;20599;-61
2020/12/11 03:27:07;;;;;;;18.93;13.83;;;3.40;99.90;;;;;;5093141;28;20212;-60
2020/12/11 03:29:33;;;;;;;18.73;14.00;;;3.30;99.90;;;;;;5092872;28;20208;-61
2020/12/11 03:32:00;;;;;;;18.77;13.30;;;3.30;99.90;;;;;;5093077;28;20433;-62
2020/12/11 03:34:27;;;;;;;18.73;13.20;;;3.40;99.90;;;;;;5093547;28;20226;-63
2020/12/11 03:36:53;;;;;;;17.97;13.97;;;3.50;99.90;;;;;;5092887;28;20211;-61
2020/12/11 03:39:19;;;;;;;17.47;13.20;;;3.60;99.90;;;;;;5092793;28;20341;-61
2020/12/11 03:41:50;;;;;;;17.67;13.40;;;3.60;99.90;;;;;;5093237;28;20213;-61
2020/12/11 03:44:16;;;;;;;17.40;13.47;;;3.70;99.90;;;;;;5092602;28;20235;-61
2020/12/11 03:46:42;;;;;;;18.33;13.70;;;3.80;99.90;;;;;;5092904;28;20572;-60
2020/12/11 03:49:09;;;;;;;15.70;13.30;;;3.80;99.90;;;;;;5092302;28;20208;-63
2020/12/11 03:51:35;;;;;;;15.60;12.67;;;3.80;99.90;;;;;;5092118;28;20228;-60
2020/12/11 03:54:01;;;;;;;15.73;13.03;;;3.90;99.90;;;;;;5091835;28;20203;-61
2020/12/11 03:56:28;;;;;;;15.50;13.40;;;3.90;99.90;;;;;;5092464;28;20211;-60
2020/12/11 03:58:54;;;;;;;16.07;12.53;;;3.90;99.90;;;;;;5092315;28;20200;-61
2020/12/11 04:01:20;;;;;;;16.70;12.93;;;3.90;99.90;;;;;;5092127;28;20244;-61
2020/12/11 04:03:47;;;;;;;18.83;14.33;;;3.90;99.90;;;;;;5091749;28;20204;-62
2020/12/11 04:06:15;;;;;;;17.40;13.63;;;3.80;99.90;;;;;;5092235;28;20662;-62
2020/12/11 04:08:43;;;;;;;16.83;13.27;;;3.80;99.90;;;;;;5091886;28;20210;-62
2020/12/11 04:11:11;;;;;;;17.97;13.87;;;3.60;99.90;;;;;;5092119;28;20228;-62
2020/12/11 04:13:37;;;;;;;17.30;13.87;;;3.40;99.90;;;;;;5091598;28;20237;-64
2020/12/11 04:16:04;;;;;;;16.67;13.60;;;3.50;99.90;;;;;;5091745;28;20212;-61
2020/12/11 04:18:31;;;;;;;18.07;14.20;;;3.50;99.90;;;;;;5091825;28;20212;-61
2020/12/11 04:20:57;;;;;;;17.57;13.63;;;3.40;99.90;;;;;;5091522;28;20220;-61
2020/12/11 04:23:25;;;;;;;18.33;14.17;;;3.30;99.90;;;;;;5091272;28;20204;-61
2020/12/11 04:25:51;;;;;;;18.77;14.10;;;3.30;99.90;;;;;;5091426;28;20251;-61
2020/12/11 04:28:18;;;;;;;18.13;14.23;;;3.20;99.90;;;;;;5091091;28;20208;-60
2020/12/11 04:30:44;;;;;;;19.07;14.43;;;3.10;99.90;;;;;;5091228;28;20246;-60
2020/12/11 04:33:10;;;;;;;21.00;15.50;;;2.80;99.90;;;;;;5091417;28;20208;-61
2020/12/11 04:35:37;;;;;;;21.60;15.67;;;2.70;99.90;;;;;;5090899;28;20200;-61
2020/12/11 04:38:04;;;;;;;21.07;15.53;;;2.70;99.90;;;;;;5091057;28;20342;-60
2020/12/11 04:40:31;;;;;;;20.73;15.40;;;2.80;99.90;;;;;;5091499;28;20236;-60
2020/12/11 04:42:59;;;;;;;20.10;14.93;;;2.80;99.90;;;;;;5091502;28;20200;-61
2020/12/11 04:45:26;;;;;;;20.27;15.20;;;2.60;99.90;;;;;;5090847;28;20231;-60
2020/12/11 04:47:54;;;;;;;18.83;14.30;;;2.40;99.90;;;;;;5090995;28;20230;-61
2020/12/11 04:50:20;;;;;;;19.20;14.40;;;2.30;99.90;;;;;;5090962;28;20458;-61
2020/12/11 04:52:48;;;;;;;20.20;15.07;;;2.30;99.90;;;;;;5090929;28;20576;-60
2020/12/11 04:55:16;;;;;;;19.80;14.90;;;2.30;99.90;;;;;;5090956;28;20196;-61
2020/12/11 04:57:46;;;;;;;20.10;14.90;;;2.20;99.90;;;;;;5090952;28;20212;-61
2020/12/11 05:00:13;;;;;;;24.83;15.20;;;2.20;99.90;;;;;;5091077;28;20273;-61
2020/12/11 05:02:41;;;;;;;21.33;15.60;;;2.20;99.90;;;;;;5091138;28;20211;-61
2020/12/11 05:05:08;;;;;;;20.60;15.43;;;2.20;99.90;;;;;;5090777;28;20644;-61
2020/12/11 05:07:34;;;;;;;20.20;14.97;;;2.30;99.90;;;;;;5091286;28;20214;-61
2020/12/11 05:10:01;;;;;;;22.90;15.87;;;2.40;99.90;;;;;;5091199;28;20289;-61
2020/12/11 05:12:27;;;;;;;22.10;15.50;;;2.40;99.90;;;;;;5091945;28;20566;-60
2020/12/11 05:14:58;;;;;;;22.80;16.33;;;2.40;99.90;;;;;;5091211;28;20214;-61
2020/12/11 05:17:29;;;;;;;21.57;16.17;;;2.40;99.90;;;;;;5091379;28;20204;-63
2020/12/11 05:19:56;;;;;;;25.93;19.00;;;2.30;99.90;;;;;;5091031;28;20650;-60
2020/12/11 05:22:24;;;;;;;21.97;16.10;;;2.20;99.90;;;;;;5091668;28;20211;-60
2020/12/11 05:24:51;;;;;;;25.00;16.80;;;2.20;99.90;;;;;;5091163;28;20244;-60
2020/12/11 05:27:26;;;;;;;22.53;15.83;;;2.10;99.90;;;;;;5091352;28;20204;-60
2020/12/11 05:29:52;;;;;;;20.97;15.50;;;2.00;99.90;;;;;;5091034;28;20625;-62
2020/12/11 05:32:34;;;;;;;22.43;16.30;;;1.80;99.90;;;;;;5091085;28;20211;-61
2020/12/11 05:35:00;;;;;;;20.30;15.10;;;1.60;99.90;;;;;;5090759;28;20211;-61
2020/12/11 05:37:27;;;;;;;22.33;15.53;;;1.30;99.90;;;;;;5091193;28;20215;-62
2020/12/11 05:39:53;;;;;;;23.50;16.20;;;1.20;99.90;;;;;;5090814;28;20236;-62
2020/12/11 05:42:19;;;;;;;23.47;15.97;;;1.10;99.90;;;;;;5090827;28;20204;-61
2020/12/11 05:44:45;;;;;;;23.30;16.20;;;1.10;99.90;;;;;;5090609;28;20231;-61
2020/12/11 05:47:21;;;;;;;28.10;17.67;;;1.10;99.90;;;;;;5090583;28;20200;-61
2020/12/11 05:49:47;;;;;;;27.30;17.73;;;1.30;99.90;;;;;;5090527;28;20235;-61
2020/12/11 05:52:15;;;;;;;24.43;17.87;;;1.50;99.90;;;;;;5090996;28;20694;-61
2020/12/11 05:54:46;;;;;;;27.23;18.27;;;1.60;99.90;;;;;;5090499;28;20286;-61
2020/12/11 05:57:14;;;;;;;27.30;18.97;;;1.70;99.90;;;;;;5090844;28;20208;-62
2020/12/11 05:59:42;;;;;;;26.37;18.13;;;1.70;99.90;;;;;;5090631;28;20580;-61
2020/12/11 06:02:09;;;;;;;24.03;16.93;;;1.80;99.90;;;;;;5090898;28;20294;-61
2020/12/11 06:04:37;;;;;;;24.53;17.37;;;1.80;99.90;;;;;;5090751;28;20220;-61
2020/12/11 06:07:10;;;;;;;25.90;17.63;;;1.70;99.90;;;;;;5090993;28;20722;-61
2020/12/11 06:09:37;;;;;;;24.67;17.73;;;1.70;99.90;;;;;;5089836;28;20240;-61
2020/12/11 06:12:05;;;;;;;27.70;19.67;;;1.70;99.90;;;;;;5090697;28;20205;-61
2020/12/11 06:14:59;;;;;;;27.97;19.60;;;1.80;99.90;;;;;;5090352;28;20208;-61
2020/12/11 06:17:27;;;;;;;26.67;18.40;;;1.70;99.90;;;;;;5089998;28;20232;-61
2020/12/11 06:19:56;;;;;;;23.47;17.30;;;1.70;99.90;;;;;;5091568;28;20228;-61
2020/12/11 06:22:22;;;;;;;23.77;17.03;;;1.40;99.90;;;;;;5094299;28;20676;-62
2020/12/11 06:24:48;;;;;;;26.50;18.37;;;1.20;99.90;;;;;;5093959;28;20228;-61
2020/12/11 06:27:15;;;;;;;24.70;17.03;;;1.00;99.90;;;;;;5094406;28;20204;-61
2020/12/11 06:29:41;;;;;;;23.57;17.37;;;1.00;99.90;;;;;;5093670;28;20640;-61
2020/12/11 06:32:08;;;;;;;24.73;17.37;;;0.90;99.90;;;;;;5093632;28;20204;-62
2020/12/11 06:34:34;;;;;;;25.80;18.43;;;0.90;99.90;;;;;;5094069;28;20203;-62
2020/12/11 06:37:01;;;;;;;27.53;18.43;;;1.00;99.90;;;;;;5094240;28;20204;-61
2020/12/11 06:39:42;;;;;;;24.80;17.53;;;1.20;99.90;;;;;;5093763;28;20672;-62
2020/12/11 06:42:10;;;;;;;27.50;18.70;;;1.20;99.90;;;;;;5094191;28;20266;-61
2020/12/11 06:44:36;;;;;;;28.87;19.03;;;1.30;99.90;;;;;;5093726;28;20223;-62
2020/12/11 06:47:07;;;;;;;29.03;18.87;;;1.30;99.90;;;;;;5094010;28;20208;-62
2020/12/11 06:49:34;;;;;;;27.77;18.73;;;1.30;99.90;;;;;;5093765;28;20242;-62
2020/12/11 06:52:12;;;;;;;25.07;17.43;;;1.40;99.90;;;;;;5094190;28;20208;-62
2020/12/11 06:54:55;;;;;;;26.73;17.50;;;1.30;99.90;;;;;;5093872;28;20208;-62
2020/12/11 06:57:35;;;;;;;26.50;17.73;;;1.10;99.90;;;;;;5093577;28;20638;-62
2020/12/11 07:00:33;;;;;;;24.70;17.17;;;1.00;99.90;;;;;;5094076;28;20240;-62
2020/12/11 07:03:20;;;;;;;25.20;17.80;;;1.00;99.90;;;;;;5037865;28;20204;-62
2020/12/11 07:05:55;;;;;;;26.60;18.20;;;0.90;99.90;;;;;;5093569;28;20224;-61
2020/12/11 07:08:22;;;;;;;26.63;18.00;;;0.90;99.90;;;;;;5093811;28;20234;-62
2020/12/11 07:10:48;;;;;;;29.83;18.67;;;0.90;99.90;;;;;;5093906;28;20220;-62
2020/12/11 07:13:14;;;;;;;28.13;17.57;;;0.90;99.90;;;;;;5093400;28;20664;-61
2020/12/11 07:15:40;;;;;;;24.93;17.37;;;0.90;99.90;;;;;;5093174;28;20212;-62
2020/12/11 07:18:13;;;;;;;28.63;19.17;;;0.90;99.90;;;;;;5093635;28;20211;-63
2020/12/11 07:20:47;;;;;;;28.30;19.33;;;0.90;99.90;;;;;;5093088;28;20232;-63
2020/12/11 07:23:14;;;;;;;27.57;18.87;;;1.00;99.90;;;;;;5093006;28;20694;-62
2020/12/11 07:25:41;;;;;;;28.07;19.37;;;1.10;99.90;;;;;;5092842;28;20587;-62
2020/12/11 07:28:08;;;;;;;30.77;20.00;;;1.30;99.90;;;;;;5092554;28;20204;-62
2020/12/11 07:30:34;;;;;;;28.83;18.83;;;1.50;99.90;;;;;;5093104;28;20255;-62
2020/12/11 07:33:02;;;;;;;28.53;18.43;;;1.50;99.90;;;;;;5093300;28;20216;-62
2020/12/11 07:35:29;;;;;;;28.97;19.17;;;1.50;99.90;;;;;;5092750;28;20200;-62
2020/12/11 07:37:56;;;;;;;29.87;18.57;;;1.30;99.90;;;;;;5092858;28;20231;-62
2020/12/11 07:40:24;;;;;;;27.17;18.73;;;1.30;99.90;;;;;;5092960;28;20566;-62
2020/12/11 07:42:52;;;;;;;28.53;19.07;;;1.30;99.90;;;;;;5093411;28;20271;-64
2020/12/11 07:45:26;;;;;;;29.37;19.60;;;1.30;99.90;;;;;;5092403;28;20590;-62
2020/12/11 07:47:54;;;;;;;26.57;18.30;;;1.30;99.90;;;;;;5092512;28;20199;-62
2020/12/11 07:50:22;;;;;;;28.40;17.90;;;1.30;99.90;;;;;;5093387;28;20591;-62
2020/12/11 07:52:50;;;;;;;27.03;19.43;;;1.30;99.90;;;;;;5092535;28;20302;-62
2020/12/11 07:55:16;;;;;;;28.13;18.83;;;1.30;99.90;;;;;;5092432;28;20201;-62
2020/12/11 07:57:50;;;;;;;28.30;18.90;;;1.40;99.90;;;;;;5092171;28;20208;-62
2020/12/11 08:00:17;;;;;;;30.23;19.30;;;1.60;99.90;;;;;;5092391;28;20266;-62
2020/12/11 08:02:44;;;;;;;28.37;19.27;;;1.80;99.90;;;;;;5092594;28;20209;-62
2020/12/11 08:05:11;;;;;;;26.10;18.60;;;1.90;99.90;;;;;;5092000;28;20236;-62
2020/12/11 08:07:37;;;;;;;27.23;18.20;;;2.10;99.90;;;;;;5092151;28;20208;-63
2020/12/11 08:10:08;;;;;;;27.30;17.87;;;2.20;99.90;;;;;;5092056;28;20231;-62
2020/12/11 08:12:35;;;;;;;26.57;17.50;;;2.40;99.90;;;;;;5091916;28;20221;-62
2020/12/11 08:15:02;;;;;;;27.07;17.83;;;2.50;99.90;;;;;;5091696;28;20205;-62
2020/12/11 08:17:31;;;;;;;28.63;18.73;;;2.50;99.90;;;;;;5091989;28;20212;-62
2020/12/11 08:19:59;;;;;;;26.20;19.03;;;2.50;99.90;;;;;;5091384;28;20220;-62
2020/12/11 08:22:32;;;;;;;28.07;18.80;;;2.60;99.90;;;;;;5091726;28;20247;-62
2020/12/11 08:24:59;;;;;;;27.83;18.77;;;2.70;99.90;;;;;;5091375;28;20730;-63
2020/12/11 08:27:27;;;;;;;26.87;17.70;;;2.80;99.90;;;;;;5091735;28;20730;-62
2020/12/11 08:30:04;;;;;;;25.03;17.27;;;2.90;99.90;;;;;;5091292;28;20776;-62
2020/12/11 08:32:31;;;;;;;26.90;18.10;;;3.00;99.90;;;;;;5091656;28;20668;-62
2020/12/11 08:34:57;;;;;;;27.77;19.20;;;3.00;99.90;;;;;;5091768;28;20205;-63
2020/12/11 08:37:23;;;;;;;25.50;17.53;;;2.90;99.90;;;;;;5091334;28;20205;-57
2020/12/11 08:39:49;;;;;;;24.40;17.57;;;2.90;99.90;;;;;;5091202;28;20228;-60
2020/12/11 08:42:23;;;;;;;27.20;19.23;;;3.10;99.90;;;;;;5090668;28;20215;-60
2020/12/11 08:50:36;;;;;;;22.43;16.47;;;3.80;99.90;;;;;;5054577;28;20219;-59
2020/12/11 08:53:04;;;;;;;23.83;16.47;;;3.80;99.90;;;;;;5092286;28;20399;-59
2020/12/11 08:55:30;;;;;;;22.07;16.10;;;3.80;99.90;;;;;;5091762;28;20538;-59
2020/12/11 08:57:57;;;;;;;26.77;16.47;;;3.70;99.90;;;;;;5090738;28;20214;-59
2020/12/11 09:00:23;;;;;;;25.27;17.17;;;3.80;99.90;;;;;;5091074;28;20240;-59
2020/12/11 09:02:50;;;;;;;23.60;17.53;;;4.00;99.90;;;;;;5091146;28;20204;-59
2020/12/11 09:05:17;;;;;;;21.90;16.47;;;4.40;99.90;;;;;;5090921;28;20231;-59
2020/12/11 09:07:43;;;;;;;22.50;16.93;;;4.70;99.90;;;;;;5091568;28;20209;-59
2020/12/11 09:10:09;;;;;;;21.77;16.23;;;5.00;99.90;;;;;;5091169;28;20232;-60
2020/12/11 09:12:36;;;;;;;23.97;17.07;;;5.30;99.90;;;;;;5090925;28;20211;-59
2020/12/11 09:15:06;;;;;;;23.37;16.97;;;5.40;99.90;;;;;;5090608;28;20731;-60
2020/12/11 09:17:32;;;;;;;22.83;16.77;;;5.10;99.90;;;;;;5091165;28;20208;-58
2020/12/11 09:19:59;;;;;;;23.20;16.77;;;5.00;99.90;;;;;;5090650;28;20235;-58
2020/12/11 09:22:25;;;;;;;23.00;16.63;;;5.10;99.90;;;;;;5090937;28;20279;-61
2020/12/11 09:24:51;;;;;;;21.70;16.40;;;5.30;99.90;;;;;;5090790;28;20286;-62
2020/12/11 09:27:18;;;;;;;24.30;17.33;;;5.40;99.90;;;;;;5090792;28;20588;-60
2020/12/11 09:29:46;;;;;;;23.07;16.77;;;5.60;99.90;;;;;;5090438;28;20648;-61
2020/12/11 09:32:17;;;;;;;22.37;16.17;;;5.50;99.90;;;;;;5090812;28;20204;-60
2020/12/11 09:34:43;;;;;;;23.73;16.00;;;5.40;99.90;;;;;;5090765;28;20204;-59
2020/12/11 09:37:10;;;;;;;22.43;16.80;;;5.40;99.90;;;;;;5090921;28;20200;-60
2020/12/11 09:39:37;;;;;;;25.80;16.73;;;5.20;99.90;;;;;;5090443;28;20208;-59
2020/12/11 09:42:11;;;;;;;26.00;17.20;;;5.10;99.90;;;;;;5090483;28;20212;-60
2020/12/11 09:44:49;;;;;;;24.30;17.73;;;4.90;99.90;;;;;;5090454;28;20207;-60
2020/12/11 09:50:06;;;;;;;24.10;16.57;;;4.80;99.90;;;;;;5085996;28;20302;-59
2020/12/11 09:52:44;;;;;;;23.97;16.63;;;4.80;99.90;;;;;;5090488;28;20683;-62
2020/12/11 09:55:10;;;;;;;25.23;17.27;;;4.90;99.90;;;;;;5094209;28;20619;-62
2020/12/11 09:57:36;;;;;;;22.90;17.27;;;5.20;99.90;;;;;;5094477;28;20260;-62
2020/12/11 10:00:04;;;;;;;24.13;17.10;;;5.60;99.90;;;;;;5093973;28;20236;-61
2020/12/11 10:02:40;;;;;;;24.17;16.43;;;6.00;99.90;;;;;;5094324;28;20200;-63
2020/12/11 10:05:06;;;;;;;24.83;16.33;;;6.20;99.90;;;;;;5093708;28;20626;-60
2020/12/11 10:07:33;;;;;;;22.40;16.70;;;6.30;99.90;;;;;;5094281;28;20211;-62
2020/12/11 10:09:59;;;;;;;24.43;17.20;;;6.20;99.90;;;;;;5093987;28;20224;-61
2020/12/11 10:12:27;;;;;;;22.67;17.23;;;6.20;99.90;;;;;;5094060;28;20725;-62
2020/12/11 10:14:57;;;;;;;22.23;16.90;;;6.40;99.90;;;;;;5093485;28;20204;-61
2020/12/11 10:17:23;;;;;;;22.53;16.00;;;6.40;99.90;;;;;;5094087;28;20302;-61
2020/12/11 10:19:50;;;;;;;23.00;16.70;;;6.50;99.90;;;;;;5093127;28;20228;-59
2020/12/11 10:22:16;;;;;;;24.07;17.23;;;6.40;99.90;;;;;;5094146;28;20675;-59
2020/12/11 10:24:43;;;;;;;20.73;15.40;;;6.40;99.90;;;;;;5093526;28;20215;-58
2020/12/11 10:27:09;;;;;;;22.43;15.93;;;6.30;99.90;;;;;;5093054;28;20208;-57
2020/12/11 10:29:35;;;;;;;22.07;15.93;;;6.00;99.90;;;;;;5093249;28;20698;-57
2020/12/11 10:32:04;;;;;;;23.20;16.20;;;5.90;99.90;;;;;;5093012;28;20612;-58
2020/12/11 10:34:31;;;;;;;20.67;15.40;;;5.80;99.90;;;;;;5093482;28;20201;-57
2020/12/11 10:36:57;;;;;;;22.03;16.23;;;5.70;99.90;;;;;;5093960;28;20580;-60
2020/12/11 10:39:23;;;;;;;26.67;16.73;;;5.70;99.90;;;;;;5093374;28;20216;-59
2020/12/11 10:41:50;;;;;;;22.90;16.07;;;5.80;99.90;;;;;;5093615;28;20211;-56
2020/12/11 10:44:16;;;;;;;24.87;16.13;;;5.70;99.90;;;;;;5093455;28;20579;-57
2020/12/11 10:46:43;;;;;;;23.87;17.23;;;5.50;99.90;;;;;;5093129;28;20216;-58
2020/12/11 10:49:09;;;;;;;24.60;16.70;;;5.40;99.90;;;;;;5093392;28;20205;-57
2020/12/11 10:51:35;;;;;;;22.90;16.17;;;5.20;99.90;;;;;;5093512;28;20495;-57
2020/12/11 10:54:01;;;;;;;22.63;17.20;;;5.10;99.90;;;;;;5093536;28;20208;-59
2020/12/11 10:56:27;;;;;;;25.00;17.43;;;5.10;99.90;;;;;;5093345;28;20298;-58
2020/12/11 10:58:54;;;;;;;24.50;16.20;;;5.40;99.90;;;;;;5092875;28;20227;-57
2020/12/11 11:01:20;;;;;;;23.80;16.53;;;5.70;99.90;;;;;;5092809;28;20239;-58
2020/12/11 11:03:47;;;;;;;19.20;15.20;;;5.90;99.90;;;;;;5092863;28;20200;-58
2020/12/11 11:06:21;;;;;;;22.27;16.07;;;5.90;99.90;;;;;;5092357;28;20223;-57
2020/12/11 11:08:54;;;;;;;20.90;15.60;;;5.90;99.90;;;;;;5093097;28;20208;-58
2020/12/11 11:11:21;;;;;;;20.43;15.20;;;5.80;99.90;;;;;;5092723;28;20725;-59
2020/12/11 11:14:00;;;;;;;21.87;16.03;;;5.90;99.90;;;;;;5092105;28;20302;-58
2020/12/11 11:16:45;;;;;;;23.23;16.87;;;6.10;99.90;;;;;;5092953;28;20294;-58
2020/12/11 11:19:17;;;;;;;19.17;14.50;;;6.30;99.90;;;;;;5092381;28;20300;-58
2020/12/11 11:24:50;;;;;;;21.00;14.90;;;6.00;99.90;;;;;;5066143;28;20282;-58
2020/12/11 11:27:20;;;;;;;21.00;14.43;;;5.80;99.90;;;;;;5092805;28;20207;-58
2020/12/11 11:29:47;;;;;;;19.83;14.70;;;5.80;99.90;;;;;;5092875;28;20221;-58
2020/12/11 11:32:14;;;;;;;22.33;15.10;;;5.50;99.90;;;;;;5092843;28;20595;-58
2020/12/11 11:34:40;;;;;;;20.97;15.00;;;5.50;99.90;;;;;;5092326;28;20251;-58
2020/12/11 11:37:06;;;;;;;25.03;16.37;;;5.50;99.90;;;;;;5092742;28;20207;-58
2020/12/11 11:39:32;;;;;;;21.70;14.93;;;5.50;99.90;;;;;;5092168;28;20204;-58
2020/12/11 11:41:59;;;;;;;28.10;18.00;;;5.60;99.90;;;;;;5092534;28;20212;-58
2020/12/11 11:44:46;;;;;;;23.13;16.80;;;5.60;99.90;;;;;;5092131;28;20210;-58
2020/12/11 11:47:12;;;;;;;24.40;16.47;;;5.80;99.90;;;;;;5092122;28;20204;-59
2020/12/11 11:49:53;;;;;;;21.93;15.57;;;5.90;99.90;;;;;;5091804;28;20565;-58
2020/12/11 11:52:23;;;;;;;19.83;14.63;;;5.80;99.90;;;;;;5092268;28;20200;-59
2020/12/11 11:54:49;;;;;;;24.37;16.43;;;5.70;99.90;;;;;;5091790;28;20675;-58
2020/12/11 11:57:16;;;;;;;23.70;15.40;;;5.40;99.90;;;;;;5092270;28;20227;-59
2020/12/11 11:59:43;;;;;;;24.10;17.47;;;5.10;99.90;;;;;;5091864;28;20239;-59
2020/12/11 12:02:09;;;;;;;25.63;16.87;;;5.00;99.90;;;;;;5091882;28;20204;-59
2020/12/11 12:04:35;;;;;;;23.27;16.97;;;4.90;99.90;;;;;;5091845;28;20200;-59
2020/12/11 12:07:02;;;;;;;22.93;16.33;;;5.00;99.90;;;;;;5091824;28;20736;-59
2020/12/11 12:09:28;;;;;;;26.30;17.33;;;5.30;99.90;;;;;;5091495;28;20682;-59
2020/12/11 12:11:54;;;;;;;24.53;16.43;;;5.70;99.90;;;;;;5091987;28;20268;-58
2020/12/11 12:14:22;;;;;;;22.07;15.70;;;6.10;99.90;;;;;;5091167;28;20741;-58
2020/12/11 12:16:51;;;;;;;22.93;14.77;;;6.30;99.90;;;;;;5091105;28;20206;-58
2020/12/11 12:19:24;;;;;;;22.27;15.83;;;6.40;99.90;;;;;;5091717;28;20222;-57
2020/12/11 12:27:42;;;;;;;20.53;14.53;;;5.60;99.90;;;;;;5060177;28;20309;-57
2020/12/11 12:30:08;;;;;;;19.77;14.50;;;5.30;99.90;;;;;;5091573;28;20239;-58
2020/12/11 12:32:43;;;;;;;21.73;14.70;;;5.20;99.90;;;;;;5091493;28;20204;-59
2020/12/11 12:35:21;;;;;;;20.90;14.67;;;5.20;99.90;;;;;;5091181;28;20302;-58
2020/12/11 12:37:49;;;;;;;20.77;14.50;;;5.20;99.90;;;;;;5091161;28;20210;-58
2020/12/11 12:40:36;;;;;;;18.83;13.80;;;5.30;99.90;;;;;;5091288;28;20271;-58
2020/12/11 12:43:17;;;;;;;23.63;15.50;;;5.30;99.90;;;;;;5091261;28;20208;-58
2020/12/11 12:45:43;;;;;;;28.20;20.43;;;5.30;99.90;;;;;;5090905;28;20840;-58
2020/12/11 12:48:09;;;;;;;23.57;16.07;;;5.40;99.90;;;;;;5091088;28;20204;-58
2020/12/11 12:50:36;;;;;;;24.27;16.03;;;5.60;99.90;;;;;;5091105;28;20232;-58
2020/12/11 12:53:02;;;;;;;21.23;14.77;;;5.90;99.90;;;;;;5091358;28;20235;-58
2020/12/11 12:55:41;;;;;;;20.57;15.00;;;6.20;99.90;;;;;;5091177;28;20200;-58
2020/12/11 12:58:09;;;;;;;20.40;13.77;;;6.50;99.90;;;;;;5091176;28;20264;-60